x

Mid Gulf - 180 Nm South Of Southwest Pass, La (42001) Wave Buoy

7:50am - Fri 30th Sep 2016 All times are UTC.

  • Sig Wave height 1.0ft
  • Swell Direction
  • Peak Period 5s
  • Average Period 4s
  • Wind
    2mph
  • Sea Temp 85°f
  • Air Temp 83°f
  • Sea Pressure 1015.8mb

More Historic Weather Station data

Upgrade to MSW Pro to gain access to the past 30 days of data for over 8000 Wavebouys and Weather Stations around the globe.

Join Pro

Comparision Forecast

View Surf forecast
   
Fri 09/30 7:50am 1ft 5s 4s 2
mph
1015.8mb 85f 83f
6:50am 1ft 5s 4s 4 7 mph 1016.1mb 85f 83f
5:50am 1ft 5s 4s 4 7 mph 1016.9mb 85f 83f
4:50am 1ft 4s 4s 7 9 mph 1017.2mb 85f 83f
3:50am 1ft 5s 4s 11
mph
1017.3mb 86f 83f
2:50am 1.3ft 5s 4s 11 13 mph 1017mb 86f 83f
1:50am 1.3ft 5s 3s 13 16 mph 1016.8mb 86f 84f
12:50am 1.3ft 5s 4s 16 18 mph 1016.3mb 86f 83f
Thu 09/29 11:50pm 1.3ft 5s 4s 11 13 mph 1016.3mb 86f 83f
10:50pm 1.3ft 5s 4s 9 11 mph 1016.7mb 86f 83f
9:50pm 1.3ft 5s 4s 9 11 mph 1016.6mb 86f 84f
8:50pm 1.3ft 4s 4s 9 11 mph 1016.6mb 87f 84f
7:50pm 1.6ft 4s 4s 9 11 mph 1017mb 86f 83f
6:50pm 1.6ft 5s 4s 9 11 mph 1017.7mb 86f 82f
5:50pm 2ft 4s 4s 7 9 mph 1018.3mb 86f 82f
4:50pm 2.5ft 5s 4s 9 11 mph 1018.3mb 86f 81f
3:50pm 2ft 4s 3s 16 18 mph 1018.9mb 85f 78f
2:50pm 1ft 5s 4s 25 29 mph 1018.6mb 85f 80f
1:50pm 1ft 5s 4s 2
mph
1018.2mb 85f 83f
12:50pm 1ft 5s 4s 2 4 mph 1017.5mb 85f 82f
11:50am 1ft 5s 4s 4 7 mph 1017.3mb 86f 80f
10:50am 1.3ft 5s 4s 7 9 mph 1016.7mb 86f 82f
9:50am 1.3ft 5s 4s 4 9 mph 1016.4mb 86f 82f
8:50am 1.3ft 5s 4s 2
mph
1016mb 86f 83f
7:50am 1.3ft 5s 4s 2
mph
1015.9mb 86f 83f
6:50am 1ft 5s 4s 2
mph
1016.1mb 86f 83f
5:50am 1.3ft 5s 4s 4
mph
1016.5mb 86f 83f
4:50am 1.3ft 5s 4s 4 7 mph 1017.1mb 86f 83f
3:50am 1.3ft 5s 4s 9
mph
1017.2mb 86f 84f
2:50am 1.3ft 5s 4s 7 9 mph 1017.2mb 86f 84f
1:50am 1.3ft 5s 4s 7 9 mph 1016.8mb 86f 84f
12:50am 1.3ft 5s 4s 9
mph
1016.3mb 86f 84f
Wed 09/28 11:50pm 1ft 5s 4s 9 11 mph 1015.7mb 86f 85f
10:50pm 1.3ft 5s 4s 4 7 mph 1015.4mb 86f 85f
9:50pm 1.3ft 5s 4s 4 7 mph 1015.5mb 86f 84f
8:50pm 1.3ft 5s 4s 7
mph
1015.6mb 86f 84f
7:50pm 1.3ft 5s 4s 7 9 mph 1015.5mb 87f 84f
6:50pm 1.3ft 5s 4s 2 4 mph 1016mb 86f 83f
5:50pm 1.3ft 5s 4s 4
mph
1016.2mb 86f 82f
4:50pm 1.6ft 5s 3s 9
mph
1016.8mb 85f 79f
3:50pm 1.3ft 5s 4s 22 29 mph 1016.5mb 85f 80f
2:50pm 1ft 6s 4s 7
mph
1016.5mb 85f 83f
1:50pm 1ft 5s 4s 4 7 mph 1015.9mb 85f 84f
12:50pm 1.3ft 5s 4s 7
mph
1015.4mb 85f 84f
11:50am 1.3ft 5s 5s 7 9 mph 1014.9mb 86f 83f
10:50am 1.3ft 6s 5s 7
mph
1014.5mb 86f 83f
9:50am 1.3ft 6s 4s 7
mph
1014mb 86f 83f
8:50am 1.3ft 6s 5s 7 9 mph 1013.9mb 86f 83f
7:50am 1.3ft 6s 5s 4 7 mph 1014.1mb 86f 83f
6:50am 1.3ft 6s 5s 4 7 mph 1014.2mb 86f 83f
5:50am 1.3ft 5s 5s 2 7 mph 1014.5mb 86f 83f
4:50am 1.3ft 5s 5s 4
mph
1014.7mb 86f 83f
3:50am 1.3ft 5s 5s 4
mph
1014.9mb 87f 84f
2:50am 1.3ft 5s 5s 2 4 mph 1015mb 87f 84f
1:50am 1.3ft 5s 4s  -  2 mph 1014.9mb 86f 84f
12:50am 1.3ft 4s 4s 2 4 mph 1013.9mb 87f 83f
Tue 09/27 11:50pm 1.3ft 5s 4s 2 4 mph 1013.5mb 87f 83f
10:50pm 1.3ft 4s 4s 7
mph
1013.1mb 87f 83f
9:50pm 1.3ft 5s 4s 4 7 mph 1012.9mb 88f 85f
8:50pm 1.3ft 4s 4s 4
mph
1012.9mb 89f 85f
7:50pm 1.3ft 5s 4s 2 4 mph 1013.4mb 89f 85f
6:50pm 1.3ft 5s 4s  -  2 mph 1013.7mb 88f 85f
5:50pm 1ft 5s 4s 2 4 mph 1014.2mb 88f 84f
4:50pm 1ft 4s 4s 2
mph
1015mb 87f 85f
3:50pm 1ft 4s 4s 2 4 mph 1015.1mb 87f 85f
2:50pm 1.3ft 4s 4s 2
mph
1014.9mb 86f 85f
1:50pm 1.3ft 4s 4s 2 4 mph 1014.2mb 86f 85f
12:50pm 1.3ft 5s 4s 2 4 mph 1013.7mb 86f 84f
11:50am 1.3ft 5s 4s 4 7 mph 1013.2mb 86f 82f
10:50am 1.6ft 5s 4s 2 4 mph 1012.9mb 86f 82f
9:50am 1.3ft 5s 4s 2 4 mph 1012.8mb 86f 83f
8:50am 1.6ft 5s 4s 2 4 mph 1013.1mb 86f 83f
7:50am 1.6ft 5s 4s 4 7 mph 1013.6mb 86f 83f
6:50am 1.6ft 5s 4s 4 7 mph 1013.8mb 86f 83f
5:50am 1.6ft 5s 4s 7 9 mph 1014.1mb 86f 83f
4:50am 1.6ft 5s 4s 7 9 mph 1014.4mb 86f 83f
3:50am 1.6ft 5s 4s 4 7 mph 1014.9mb 86f 83f
2:50am 1.6ft 5s 4s 4 7 mph 1015.1mb 87f 83f
1:50am 1.6ft 5s 4s 7 9 mph 1014.6mb 87f 83f
12:50am 1.3ft 4s 4s 7 9 mph 1013.7mb 87f 83f
Mon 09/26 11:50pm 1.6ft 5s 4s 4 7 mph 1013.4mb 87f 83f
10:50pm 2ft 5s 4s 2 4 mph 1013.2mb 87f 85f
9:50pm 2.5ft 5s 4s 4 7 mph 1013.1mb 87f 84f
8:50pm 2.5ft 5s 4s 2 4 mph 1013.5mb 87f 83f
7:50pm 2.5ft 5s 4s 2
mph
1013.8mb 87f 83f
6:50pm 3ft 5s 4s 9 11 mph 1014.1mb 87f 81f
5:50pm 2.5ft 5s 4s 16 20 mph 1015.1mb 86f 81f
4:50pm 2.5ft 5s 4s 18 22 mph 1015.4mb 86f 83f
3:50pm 2ft 5s 4s 18 20 mph 1015.5mb 86f 84f
2:50pm 2ft 5s 4s 13 16 mph 1015.7mb 86f 84f
1:50pm 1.6ft 5s 4s 13
mph
1015mb 86f 83f
12:50pm 1.6ft 5s 4s 9 11 mph 1014.4mb 86f 84f
11:50am 2ft 5s 4s 9 11 mph 1014.3mb 86f 83f
10:50am 2.5ft 5s 4s 4 9 mph 1013.9mb 87f 83f
9:50am 2.5ft 5s 4s 2 4 mph 1014.2mb 87f 83f